sensor_id;sensor_type;location;lat;lon;timestamp;pressure;altitude;pressure_sealevel;temperature;humidity
10176;BME280;18221;38.704;0.152;2023-02-10T00:04:34;100793.19;;;11.54;50.05
10176;BME280;18221;38.704;0.152;2023-02-10T00:07:09;100795.94;;;11.53;50.54
10176;BME280;18221;38.704;0.152;2023-02-10T00:09:37;100800.72;;;11.48;51.20
10176;BME280;18221;38.704;0.152;2023-02-10T00:12:06;100798.41;;;11.56;51.11
10176;BME280;18221;38.704;0.152;2023-02-10T00:14:36;100796.19;;;11.62;51.43
10176;BME280;18221;38.704;0.152;2023-02-10T00:17:05;100805.84;;;11.77;50.64
10176;BME280;18221;38.704;0.152;2023-02-10T00:19:35;100806.78;;;11.76;50.76
10176;BME280;18221;38.704;0.152;2023-02-10T00:22:03;100807.53;;;11.78;50.40
10176;BME280;18221;38.704;0.152;2023-02-10T00:24:31;100811.56;;;11.84;50.38
10176;BME280;18221;38.704;0.152;2023-02-10T00:26:59;100816.16;;;11.82;50.08
10176;BME280;18221;38.704;0.152;2023-02-10T00:29:28;100814.69;;;11.91;49.64
10176;BME280;18221;38.704;0.152;2023-02-10T00:31:57;100818.09;;;11.93;49.54
10176;BME280;18221;38.704;0.152;2023-02-10T00:34:26;100809.78;;;11.97;49.36
10176;BME280;18221;38.704;0.152;2023-02-10T00:36:56;100803.31;;;12.01;49.40
10176;BME280;18221;38.704;0.152;2023-02-10T00:39:24;100798.41;;;11.95;49.71
10176;BME280;18221;38.704;0.152;2023-02-10T00:41:52;100795.19;;;12.03;49.64
10176;BME280;18221;38.704;0.152;2023-02-10T00:44:21;100793.72;;;11.86;49.42
10176;BME280;18221;38.704;0.152;2023-02-10T00:46:49;100795.59;;;11.84;49.80
10176;BME280;18221;38.704;0.152;2023-02-10T00:49:17;100796.03;;;11.78;48.84
10176;BME280;18221;38.704;0.152;2023-02-10T00:51:45;100800.31;;;11.81;49.33
10176;BME280;18221;38.704;0.152;2023-02-10T00:54:15;100797.72;;;11.79;49.36
10176;BME280;18221;38.704;0.152;2023-02-10T00:56:43;100791.63;;;11.64;49.76
10176;BME280;18221;38.704;0.152;2023-02-10T00:59:13;100784.56;;;11.63;49.48
10176;BME280;18221;38.704;0.152;2023-02-10T01:01:42;100791.47;;;11.53;49.46
10176;BME280;18221;38.704;0.152;2023-02-10T01:04:10;100789.16;;;11.61;49.11
10176;BME280;18221;38.704;0.152;2023-02-10T01:06:49;100794.91;;;11.68;49.49
10176;BME280;18221;38.704;0.152;2023-02-10T01:09:19;100793.38;;;11.78;49.42
10176;BME280;18221;38.704;0.152;2023-02-10T01:11:47;100799.31;;;11.69;49.21
10176;BME280;18221;38.704;0.152;2023-02-10T01:14:15;100801.13;;;11.68;49.70
10176;BME280;18221;38.704;0.152;2023-02-10T01:16:44;100799.84;;;11.74;49.66
10176;BME280;18221;38.704;0.152;2023-02-10T01:19:14;100792.41;;;11.92;49.25
10176;BME280;18221;38.704;0.152;2023-02-10T01:21:42;100799.56;;;11.91;48.84
10176;BME280;18221;38.704;0.152;2023-02-10T01:24:11;100805.00;;;12.02;49.06
10176;BME280;18221;38.704;0.152;2023-02-10T01:26:40;100789.66;;;11.93;48.68
10176;BME280;18221;38.704;0.152;2023-02-10T01:29:09;100794.13;;;12.05;48.91
10176;BME280;18221;38.704;0.152;2023-02-10T01:31:37;100792.66;;;12.01;48.68
10176;BME280;18221;38.704;0.152;2023-02-10T01:34:06;100787.34;;;12.01;49.24
10176;BME280;18221;38.704;0.152;2023-02-10T01:36:34;100787.75;;;12.08;49.32
10176;BME280;18221;38.704;0.152;2023-02-10T01:39:02;100797.03;;;12.15;49.21
10176;BME280;18221;38.704;0.152;2023-02-10T01:41:31;100795.84;;;12.19;49.34
10176;BME280;18221;38.704;0.152;2023-02-10T01:44:04;100792.66;;;12.14;49.34
10176;BME280;18221;38.704;0.152;2023-02-10T01:46:34;100788.72;;;12.07;49.84
10176;BME280;18221;38.704;0.152;2023-02-10T01:49:19;100784.13;;;12.09;49.67
10176;BME280;18221;38.704;0.152;2023-02-10T01:51:59;100782.75;;;12.03;49.83
10176;BME280;18221;38.704;0.152;2023-02-10T01:54:34;100780.41;;;11.99;50.12
10176;BME280;18221;38.704;0.152;2023-02-10T01:57:05;100782.50;;;11.81;50.55
10176;BME280;18221;38.704;0.152;2023-02-10T01:59:37;100787.94;;;11.80;50.82
10176;BME280;18221;38.704;0.152;2023-02-10T02:02:06;100779.22;;;11.90;51.11
10176;BME280;18221;38.704;0.152;2023-02-10T02:04:37;100786.81;;;12.09;50.41
10176;BME280;18221;38.704;0.152;2023-02-10T02:07:07;100783.72;;;12.15;50.12
10176;BME280;18221;38.704;0.152;2023-02-10T02:09:36;100776.47;;;12.29;49.64
10176;BME280;18221;38.704;0.152;2023-02-10T02:12:13;100779.00;;;12.18;49.12
10176;BME280;18221;38.704;0.152;2023-02-10T02:14:54;100780.72;;;12.19;49.04
10176;BME280;18221;38.704;0.152;2023-02-10T02:17:37;100778.38;;;12.27;49.36
10176;BME280;18221;38.704;0.152;2023-02-10T02:24:22;100770.06;;;12.32;50.02
10176;BME280;18221;38.704;0.152;2023-02-10T02:27:44;100777.19;;;12.31;49.86
10176;BME280;18221;38.704;0.152;2023-02-10T02:31:11;100772.31;;;12.38;49.73
10176;BME280;18221;38.704;0.152;2023-02-10T02:33:51;100766.97;;;12.38;49.52
10176;BME280;18221;38.704;0.152;2023-02-10T02:36:29;100763.25;;;12.41;49.07
10176;BME280;18221;38.704;0.152;2023-02-10T02:39:00;100765.91;;;12.41;49.20
10176;BME280;18221;38.704;0.152;2023-02-10T02:41:32;100762.47;;;12.38;49.28
10176;BME280;18221;38.704;0.152;2023-02-10T02:44:02;100762.72;;;12.35;49.36
10176;BME280;18221;38.704;0.152;2023-02-10T02:46:46;100761.22;;;12.19;49.44
10176;BME280;18221;38.704;0.152;2023-02-10T02:49:31;100758.97;;;12.25;49.49
10176;BME280;18221;38.704;0.152;2023-02-10T02:52:08;100758.56;;;12.31;49.48
10176;BME280;18221;38.704;0.152;2023-02-10T02:54:46;100762.41;;;12.27;49.41
10176;BME280;18221;38.704;0.152;2023-02-10T02:57:25;100756.41;;;12.36;49.61
10176;BME280;18221;38.704;0.152;2023-02-10T03:00:05;100752.34;;;12.44;49.23
10176;BME280;18221;38.704;0.152;2023-02-10T03:02:51;100750.53;;;12.44;49.56
10176;BME280;18221;38.704;0.152;2023-02-10T03:05:27;100749.06;;;12.40;49.29
10176;BME280;18221;38.704;0.152;2023-02-10T03:07:56;100750.47;;;12.33;49.22
10176;BME280;18221;38.704;0.152;2023-02-10T03:10:24;100754.72;;;12.35;49.13
10176;BME280;18221;38.704;0.152;2023-02-10T03:12:52;100742.47;;;12.33;49.15
10176;BME280;18221;38.704;0.152;2023-02-10T03:15:21;100742.78;;;12.28;49.26
10176;BME280;18221;38.704;0.152;2023-02-10T03:17:49;100740.25;;;12.14;49.66
10176;BME280;18221;38.704;0.152;2023-02-10T03:20:18;100736.94;;;12.23;49.25
10176;BME280;18221;38.704;0.152;2023-02-10T03:22:48;100740.56;;;12.22;49.22
10176;BME280;18221;38.704;0.152;2023-02-10T03:25:16;100743.44;;;12.19;49.45
10176;BME280;18221;38.704;0.152;2023-02-10T03:27:44;100746.00;;;12.08;49.52
10176;BME280;18221;38.704;0.152;2023-02-10T03:30:45;100740.56;;;12.10;49.32
10176;BME280;18221;38.704;0.152;2023-02-10T03:33:17;100737.38;;;12.17;49.34
10176;BME280;18221;38.704;0.152;2023-02-10T03:35:46;100737.66;;;12.25;48.82
10176;BME280;18221;38.704;0.152;2023-02-10T03:38:16;100746.53;;;12.13;49.27
10176;BME280;18221;38.704;0.152;2023-02-10T03:40:44;100751.22;;;12.22;49.00
10176;BME280;18221;38.704;0.152;2023-02-10T03:43:12;100745.66;;;12.25;48.79
10176;BME280;18221;38.704;0.152;2023-02-10T03:45:40;100747.25;;;12.28;48.87
10176;BME280;18221;38.704;0.152;2023-02-10T03:48:08;100742.91;;;12.27;48.82
10176;BME280;18221;38.704;0.152;2023-02-10T03:50:37;100733.63;;;12.07;49.34
10176;BME280;18221;38.704;0.152;2023-02-10T03:53:05;100741.53;;;12.09;49.73
10176;BME280;18221;38.704;0.152;2023-02-10T03:55:35;100756.22;;;12.14;49.93
10176;BME280;18221;38.704;0.152;2023-02-10T03:58:03;100750.69;;;12.17;49.82
10176;BME280;18221;38.704;0.152;2023-02-10T04:00:32;100746.72;;;12.23;49.66
10176;BME280;18221;38.704;0.152;2023-02-10T04:03:00;100754.31;;;12.16;50.18
10176;BME280;18221;38.704;0.152;2023-02-10T04:05:28;100746.44;;;12.15;50.34
10176;BME280;18221;38.704;0.152;2023-02-10T04:07:56;100746.63;;;11.99;50.51
10176;BME280;18221;38.704;0.152;2023-02-10T04:10:24;100741.09;;;11.90;50.52
10176;BME280;18221;38.704;0.152;2023-02-10T04:12:54;100740.88;;;12.05;50.07
10176;BME280;18221;38.704;0.152;2023-02-10T04:15:22;100735.03;;;12.13;49.88
10176;BME280;18221;38.704;0.152;2023-02-10T04:17:59;100735.97;;;12.24;49.66
10176;BME280;18221;38.704;0.152;2023-02-10T04:20:27;100729.59;;;12.14;49.99
10176;BME280;18221;38.704;0.152;2023-02-10T04:22:55;100738.22;;;12.30;49.52
10176;BME280;18221;38.704;0.152;2023-02-10T04:25:24;100737.88;;;12.35;49.45
10176;BME280;18221;38.704;0.152;2023-02-10T04:27:59;100736.81;;;12.37;49.32
10176;BME280;18221;38.704;0.152;2023-02-10T04:30:27;100741.09;;;12.27;49.12
10176;BME280;18221;38.704;0.152;2023-02-10T04:32:55;100737.25;;;12.31;49.00
10176;BME280;18221;38.704;0.152;2023-02-10T04:35:24;100737.44;;;12.28;48.69
10176;BME280;18221;38.704;0.152;2023-02-10T04:37:52;100730.97;;;12.32;48.83
10176;BME280;18221;38.704;0.152;2023-02-10T04:40:26;100740.34;;;12.38;48.56
10176;BME280;18221;38.704;0.152;2023-02-10T04:42:56;100732.78;;;12.32;48.57
10176;BME280;18221;38.704;0.152;2023-02-10T04:45:24;100736.59;;;12.28;48.72
10176;BME280;18221;38.704;0.152;2023-02-10T04:47:52;100739.50;;;12.25;48.93
10176;BME280;18221;38.704;0.152;2023-02-10T04:50:21;100739.16;;;12.29;48.83
10176;BME280;18221;38.704;0.152;2023-02-10T04:52:49;100753.88;;;12.35;48.92
10176;BME280;18221;38.704;0.152;2023-02-10T04:55:17;100761.09;;;12.20;49.16
10176;BME280;18221;38.704;0.152;2023-02-10T04:57:45;100764.22;;;12.27;49.12
10176;BME280;18221;38.704;0.152;2023-02-10T05:00:16;100769.13;;;12.33;48.64
10176;BME280;18221;38.704;0.152;2023-02-10T05:02:44;100764.94;;;12.29;49.10
10176;BME280;18221;38.704;0.152;2023-02-10T05:05:13;100761.13;;;12.33;48.61
10176;BME280;18221;38.704;0.152;2023-02-10T05:07:41;100768.03;;;12.35;48.97
10176;BME280;18221;38.704;0.152;2023-02-10T05:10:09;100762.31;;;12.16;49.63
10176;BME280;18221;38.704;0.152;2023-02-10T05:12:38;100775.19;;;11.97;50.12
10176;BME280;18221;38.704;0.152;2023-02-10T05:15:07;100769.84;;;11.85;50.22
10176;BME280;18221;38.704;0.152;2023-02-10T05:17:36;100771.34;;;11.89;50.25
10176;BME280;18221;38.704;0.152;2023-02-10T05:20:06;100773.44;;;11.84;49.94
10176;BME280;18221;38.704;0.152;2023-02-10T05:22:35;100772.91;;;11.78;49.96
10176;BME280;18221;38.704;0.152;2023-02-10T05:25:04;100770.41;;;11.63;50.20
10176;BME280;18221;38.704;0.152;2023-02-10T05:27:32;100779.53;;;11.34;50.38
10176;BME280;18221;38.704;0.152;2023-02-10T05:30:01;100783.34;;;11.42;50.12
10176;BME280;18221;38.704;0.152;2023-02-10T05:32:29;100773.94;;;11.24;49.97
10176;BME280;18221;38.704;0.152;2023-02-10T05:35:13;100774.03;;;11.23;50.78
10176;BME280;18221;38.704;0.152;2023-02-10T05:37:41;100781.94;;;11.37;50.74
10176;BME280;18221;38.704;0.152;2023-02-10T05:40:11;100784.38;;;11.27;50.85
10176;BME280;18221;38.704;0.152;2023-02-10T05:42:39;100788.84;;;11.27;51.61
10176;BME280;18221;38.704;0.152;2023-02-10T05:45:08;100784.75;;;11.21;51.84
10176;BME280;18221;38.704;0.152;2023-02-10T05:47:36;100786.31;;;11.38;51.72
10176;BME280;18221;38.704;0.152;2023-02-10T05:50:05;100789.06;;;11.24;51.95
10176;BME280;18221;38.704;0.152;2023-02-10T05:52:35;100785.63;;;11.22;51.87
10176;BME280;18221;38.704;0.152;2023-02-10T05:55:04;100787.00;;;11.14;51.61
10176;BME280;18221;38.704;0.152;2023-02-10T05:57:32;100783.44;;;10.87;52.90
10176;BME280;18221;38.704;0.152;2023-02-10T06:00:00;100784.63;;;10.83;52.44
10176;BME280;18221;38.704;0.152;2023-02-10T06:02:29;100782.50;;;10.88;52.77
10176;BME280;18221;38.704;0.152;2023-02-10T06:04:57;100789.63;;;10.88;53.01
10176;BME280;18221;38.704;0.152;2023-02-10T06:07:25;100778.91;;;10.89;52.48
10176;BME280;18221;38.704;0.152;2023-02-10T06:09:54;100778.06;;;10.89;53.54
10176;BME280;18221;38.704;0.152;2023-02-10T06:12:22;100781.06;;;10.97;52.59
10176;BME280;18221;38.704;0.152;2023-02-10T06:14:51;100784.88;;;10.93;52.66
10176;BME280;18221;38.704;0.152;2023-02-10T06:17:19;100780.66;;;10.76;53.61
10176;BME280;18221;38.704;0.152;2023-02-10T06:19:47;100781.22;;;10.81;53.25
10176;BME280;18221;38.704;0.152;2023-02-10T06:22:16;100795.47;;;10.66;53.56
10176;BME280;18221;38.704;0.152;2023-02-10T06:24:44;100791.88;;;10.53;54.18
10176;BME280;18221;38.704;0.152;2023-02-10T06:27:14;100796.16;;;10.56;54.39
10176;BME280;18221;38.704;0.152;2023-02-10T06:29:43;100802.97;;;10.60;53.96
10176;BME280;18221;38.704;0.152;2023-02-10T06:32:11;100803.34;;;10.53;54.69
10176;BME280;18221;38.704;0.152;2023-02-10T06:34:39;100797.09;;;10.54;54.60
10176;BME280;18221;38.704;0.152;2023-02-10T06:37:08;100809.13;;;10.60;54.62
10176;BME280;18221;38.704;0.152;2023-02-10T06:39:36;100806.09;;;10.66;54.71
10176;BME280;18221;38.704;0.152;2023-02-10T06:42:04;100811.19;;;10.69;54.48
10176;BME280;18221;38.704;0.152;2023-02-10T06:44:34;100809.50;;;10.68;54.71
10176;BME280;18221;38.704;0.152;2023-02-10T06:47:02;100809.22;;;10.59;55.01
10176;BME280;18221;38.704;0.152;2023-02-10T06:49:31;100809.63;;;10.52;55.46
10176;BME280;18221;38.704;0.152;2023-02-10T06:51:59;100809.59;;;10.67;55.28
10176;BME280;18221;38.704;0.152;2023-02-10T06:54:27;100802.03;;;10.61;55.31
10176;BME280;18221;38.704;0.152;2023-02-10T06:56:55;100805.31;;;10.64;55.51
10176;BME280;18221;38.704;0.152;2023-02-10T06:59:24;100810.44;;;10.67;55.47
10176;BME280;18221;38.704;0.152;2023-02-10T07:01:53;100820.22;;;10.81;55.51
10176;BME280;18221;38.704;0.152;2023-02-10T07:04:27;100813.84;;;10.69;55.57
10176;BME280;18221;38.704;0.152;2023-02-10T07:06:55;100816.69;;;10.80;55.59
10176;BME280;18221;38.704;0.152;2023-02-10T07:09:24;100816.50;;;10.83;55.80
10176;BME280;18221;38.704;0.152;2023-02-10T07:11:52;100822.69;;;10.84;55.39
10176;BME280;18221;38.704;0.152;2023-02-10T07:14:21;100820.78;;;10.86;55.33
10176;BME280;18221;38.704;0.152;2023-02-10T07:16:49;100826.66;;;10.77;55.74
10176;BME280;18221;38.704;0.152;2023-02-10T07:19:19;100824.25;;;11.00;54.96
10176;BME280;18221;38.704;0.152;2023-02-10T07:21:47;100828.00;;;10.84;55.30
10176;BME280;18221;38.704;0.152;2023-02-10T07:24:16;100824.66;;;10.80;55.55
10176;BME280;18221;38.704;0.152;2023-02-10T07:26:45;100829.03;;;10.81;55.09
10176;BME280;18221;38.704;0.152;2023-02-10T07:29:13;100833.19;;;10.99;55.25
10176;BME280;18221;38.704;0.152;2023-02-10T07:31:41;100837.91;;;11.08;55.01
10176;BME280;18221;38.704;0.152;2023-02-10T07:34:09;100834.19;;;11.11;54.62
10176;BME280;18221;38.704;0.152;2023-02-10T07:36:39;100837.38;;;11.30;54.04
10176;BME280;18221;38.704;0.152;2023-02-10T07:39:08;100840.63;;;11.21;54.22
10176;BME280;18221;38.704;0.152;2023-02-10T07:41:37;100851.25;;;11.21;54.27
10176;BME280;18221;38.704;0.152;2023-02-10T07:44:06;100849.25;;;11.25;54.08
10176;BME280;18221;38.704;0.152;2023-02-10T07:46:34;100855.56;;;11.09;54.08
10176;BME280;18221;38.704;0.152;2023-02-10T07:49:02;100858.03;;;11.12;54.25
10176;BME280;18221;38.704;0.152;2023-02-10T07:51:30;100860.94;;;11.22;54.28
10176;BME280;18221;38.704;0.152;2023-02-10T07:54:00;100856.91;;;11.43;53.75
10176;BME280;18221;38.704;0.152;2023-02-10T07:56:28;100866.88;;;11.40;54.12
10176;BME280;18221;38.704;0.152;2023-02-10T07:58:56;100861.91;;;11.48;53.86
10176;BME280;18221;38.704;0.152;2023-02-10T08:01:25;100857.28;;;11.64;53.34
10176;BME280;18221;38.704;0.152;2023-02-10T08:03:53;100865.84;;;11.69;53.08
10176;BME280;18221;38.704;0.152;2023-02-10T08:06:25;100861.38;;;11.69;53.14
10176;BME280;18221;38.704;0.152;2023-02-10T08:08:54;100863.72;;;11.74;52.54
10176;BME280;18221;38.704;0.152;2023-02-10T08:11:23;100853.44;;;11.68;52.91
10176;BME280;18221;38.704;0.152;2023-02-10T08:13:52;100853.41;;;11.69;52.86
10176;BME280;18221;38.704;0.152;2023-02-10T08:16:20;100857.09;;;11.67;53.03
10176;BME280;18221;38.704;0.152;2023-02-10T08:18:48;100854.47;;;11.53;53.27
10176;BME280;18221;38.704;0.152;2023-02-10T08:21:16;100853.34;;;11.57;53.27
10176;BME280;18221;38.704;0.152;2023-02-10T08:23:44;100852.00;;;11.50;52.92
10176;BME280;18221;38.704;0.152;2023-02-10T08:26:13;100853.41;;;11.55;52.83
10176;BME280;18221;38.704;0.152;2023-02-10T08:28:43;100845.22;;;11.58;52.86
10176;BME280;18221;38.704;0.152;2023-02-10T08:31:11;100853.53;;;11.81;52.90
10176;BME280;18221;38.704;0.152;2023-02-10T08:33:39;100845.69;;;11.65;52.88
10176;BME280;18221;38.704;0.152;2023-02-10T08:36:11;100851.22;;;11.62;52.74
10176;BME280;18221;38.704;0.152;2023-02-10T08:38:39;100845.66;;;11.79;52.63
10176;BME280;18221;38.704;0.152;2023-02-10T08:41:08;100847.75;;;11.74;52.33
10176;BME280;18221;38.704;0.152;2023-02-10T08:43:36;100845.91;;;11.89;52.58
10176;BME280;18221;38.704;0.152;2023-02-10T08:46:06;100849.81;;;11.83;52.39
10176;BME280;18221;38.704;0.152;2023-02-10T08:48:35;100857.28;;;11.64;52.66
10176;BME280;18221;38.704;0.152;2023-02-10T08:51:08;100860.22;;;11.47;53.53
10176;BME280;18221;38.704;0.152;2023-02-10T08:53:36;100865.97;;;11.53;53.36
10176;BME280;18221;38.704;0.152;2023-02-10T08:56:08;100875.75;;;11.53;53.42
10176;BME280;18221;38.704;0.152;2023-02-10T08:58:37;100871.97;;;11.57;53.34
10176;BME280;18221;38.704;0.152;2023-02-10T09:01:11;100877.81;;;11.62;53.31
10176;BME280;18221;38.704;0.152;2023-02-10T09:03:40;100877.16;;;11.58;53.72
10176;BME280;18221;38.704;0.152;2023-02-10T09:06:14;100875.72;;;11.67;53.53
10176;BME280;18221;38.704;0.152;2023-02-10T09:08:50;100879.31;;;11.80;52.84
10176;BME280;18221;38.704;0.152;2023-02-10T09:11:21;100882.28;;;11.75;52.80
10176;BME280;18221;38.704;0.152;2023-02-10T09:13:51;100891.56;;;11.83;53.06
10176;BME280;18221;38.704;0.152;2023-02-10T09:16:30;100887.44;;;11.91;52.83
10176;BME280;18221;38.704;0.152;2023-02-10T09:18:58;100896.16;;;11.93;53.28
10176;BME280;18221;38.704;0.152;2023-02-10T09:21:27;100896.75;;;11.84;53.52
10176;BME280;18221;38.704;0.152;2023-02-10T09:23:55;100892.44;;;11.96;53.24
10176;BME280;18221;38.704;0.152;2023-02-10T09:26:23;100896.25;;;11.92;53.33
10176;BME280;18221;38.704;0.152;2023-02-10T09:28:51;100898.72;;;12.07;53.22
10176;BME280;18221;38.704;0.152;2023-02-10T09:31:21;100907.25;;;12.12;53.43
10176;BME280;18221;38.704;0.152;2023-02-10T09:33:50;100913.22;;;12.03;53.74
10176;BME280;18221;38.704;0.152;2023-02-10T09:36:19;100911.50;;;12.02;54.00
10176;BME280;18221;38.704;0.152;2023-02-10T09:38:48;100917.16;;;11.98;53.85
10176;BME280;18221;38.704;0.152;2023-02-10T09:41:34;100918.56;;;12.03;54.28
10176;BME280;18221;38.704;0.152;2023-02-10T09:44:14;100914.22;;;12.15;53.35
10176;BME280;18221;38.704;0.152;2023-02-10T09:47:08;100920.50;;;12.14;52.84
10176;BME280;18221;38.704;0.152;2023-02-10T09:50:09;100926.75;;;12.13;52.94
10176;BME280;18221;38.704;0.152;2023-02-10T09:53:01;100930.50;;;12.23;52.80
10176;BME280;18221;38.704;0.152;2023-02-10T09:55:36;100928.75;;;11.97;53.53
10176;BME280;18221;38.704;0.152;2023-02-10T09:58:24;100936.69;;;12.23;52.72
10176;BME280;18221;38.704;0.152;2023-02-10T10:01:01;100923.56;;;12.20;53.02
10176;BME280;18221;38.704;0.152;2023-02-10T10:03:43;100929.88;;;12.19;52.92
10176;BME280;18221;38.704;0.152;2023-02-10T10:06:23;100944.81;;;12.22;52.36
10176;BME280;18221;38.704;0.152;2023-02-10T10:09:05;100945.47;;;12.38;52.14
10176;BME280;18221;38.704;0.152;2023-02-10T10:11:44;100936.69;;;12.23;52.33
10176;BME280;18221;38.704;0.152;2023-02-10T10:14:19;100946.72;;;12.20;52.64
10176;BME280;18221;38.704;0.152;2023-02-10T10:17:27;100947.44;;;12.09;53.56
10176;BME280;18221;38.704;0.152;2023-02-10T10:20:32;100962.25;;;12.13;53.30
10176;BME280;18221;38.704;0.152;2023-02-10T10:23:23;100962.00;;;12.04;52.75
10176;BME280;18221;38.704;0.152;2023-02-10T10:26:23;100960.53;;;12.12;52.54
10176;BME280;18221;38.704;0.152;2023-02-10T10:29:13;100961.25;;;12.02;52.83
10176;BME280;18221;38.704;0.152;2023-02-10T10:31:50;100972.00;;;12.00;53.01
10176;BME280;18221;38.704;0.152;2023-02-10T10:34:28;100973.72;;;12.01;53.14
10176;BME280;18221;38.704;0.152;2023-02-10T10:36:59;100972.38;;;12.21;52.68
10176;BME280;18221;38.704;0.152;2023-02-10T10:39:33;100980.84;;;12.27;52.39
10176;BME280;18221;38.704;0.152;2023-02-10T10:42:22;100975.31;;;12.30;52.39
10176;BME280;18221;38.704;0.152;2023-02-10T10:44:57;100979.31;;;12.23;52.87
10176;BME280;18221;38.704;0.152;2023-02-10T10:47:40;100975.31;;;12.43;52.86
10176;BME280;18221;38.704;0.152;2023-02-10T10:50:14;100978.72;;;12.45;52.36
10176;BME280;18221;38.704;0.152;2023-02-10T10:52:49;100983.84;;;12.48;52.41
10176;BME280;18221;38.704;0.152;2023-02-10T10:55:25;100982.59;;;12.54;52.29
10176;BME280;18221;38.704;0.152;2023-02-10T10:58:00;100979.19;;;12.64;52.55
10176;BME280;18221;38.704;0.152;2023-02-10T11:00:30;100972.28;;;12.74;52.66
10176;BME280;18221;38.704;0.152;2023-02-10T11:03:02;100964.28;;;13.12;52.27
10176;BME280;18221;38.704;0.152;2023-02-10T11:05:36;100971.09;;;13.65;51.25
10176;BME280;18221;38.704;0.152;2023-02-10T11:08:19;100965.88;;;13.87;50.27
10176;BME280;18221;38.704;0.152;2023-02-10T11:10:54;100967.47;;;14.13;49.07
10176;BME280;18221;38.704;0.152;2023-02-10T11:13:26;100974.59;;;14.02;48.08
10176;BME280;18221;38.704;0.152;2023-02-10T11:16:02;100968.66;;;14.09;46.92
10176;BME280;18221;38.704;0.152;2023-02-10T11:18:31;100962.53;;;13.96;46.26
10176;BME280;18221;38.704;0.152;2023-02-10T11:21:03;100961.06;;;13.56;45.66
10176;BME280;18221;38.704;0.152;2023-02-10T11:23:47;100960.38;;;14.01;45.60
10176;BME280;18221;38.704;0.152;2023-02-10T11:26:21;100953.50;;;14.10;43.11
10176;BME280;18221;38.704;0.152;2023-02-10T11:28:52;100950.34;;;14.16;43.63
10176;BME280;18221;38.704;0.152;2023-02-10T11:31:29;100946.88;;;14.03;44.92
10176;BME280;18221;38.704;0.152;2023-02-10T11:34:02;100946.84;;;14.15;44.05
10176;BME280;18221;38.704;0.152;2023-02-10T11:36:37;100942.44;;;14.38;43.08
10176;BME280;18221;38.704;0.152;2023-02-10T11:39:20;100941.16;;;14.20;44.53
10176;BME280;18221;38.704;0.152;2023-02-10T11:41:57;100943.91;;;14.42;44.32
10176;BME280;18221;38.704;0.152;2023-02-10T11:44:30;100940.31;;;14.65;44.48
10176;BME280;18221;38.704;0.152;2023-02-10T11:47:01;100924.78;;;14.81;44.13
10176;BME280;18221;38.704;0.152;2023-02-10T11:49:31;100922.84;;;14.72;44.09
10176;BME280;18221;38.704;0.152;2023-02-10T11:52:04;100913.09;;;15.05;43.39
10176;BME280;18221;38.704;0.152;2023-02-10T11:54:34;100909.56;;;15.26;43.22
10176;BME280;18221;38.704;0.152;2023-02-10T11:57:24;100918.78;;;15.44;43.79
10176;BME280;18221;38.704;0.152;2023-02-10T12:00:21;100906.69;;;15.72;43.10
10176;BME280;18221;38.704;0.152;2023-02-10T12:03:41;100902.06;;;14.98;43.68
10176;BME280;18221;38.704;0.152;2023-02-10T12:06:18;100890.00;;;14.70;45.07
10176;BME280;18221;38.704;0.152;2023-02-10T12:09:00;100884.88;;;14.45;46.17
10176;BME280;18221;38.704;0.152;2023-02-10T12:11:45;100894.00;;;14.76;45.86
10176;BME280;18221;38.704;0.152;2023-02-10T12:14:40;100884.66;;;14.93;46.00
10176;BME280;18221;38.704;0.152;2023-02-10T12:17:31;100886.38;;;14.82;46.08
10176;BME280;18221;38.704;0.152;2023-02-10T12:20:21;100866.91;;;14.69;46.28
10176;BME280;18221;38.704;0.152;2023-02-10T12:23:25;100869.22;;;14.74;46.15
10176;BME280;18221;38.704;0.152;2023-02-10T12:26:08;100870.31;;;14.71;46.43
10176;BME280;18221;38.704;0.152;2023-02-10T12:28:53;100877.13;;;14.75;45.20
10176;BME280;18221;38.704;0.152;2023-02-10T12:31:39;100872.50;;;14.44;46.83
10176;BME280;18221;38.704;0.152;2023-02-10T12:34:37;100872.44;;;13.98;48.17
10176;BME280;18221;38.704;0.152;2023-02-10T12:37:25;100867.06;;;14.22;47.03
10176;BME280;18221;38.704;0.152;2023-02-10T12:40:23;100861.06;;;14.31;47.35
10176;BME280;18221;38.704;0.152;2023-02-10T12:43:05;100858.41;;;14.64;46.95
10176;BME280;18221;38.704;0.152;2023-02-10T12:45:48;100861.56;;;14.23;47.63
10176;BME280;18221;38.704;0.152;2023-02-10T12:48:31;100852.75;;;14.23;47.67
10176;BME280;18221;38.704;0.152;2023-02-10T12:51:22;100862.66;;;14.21;47.15
10176;BME280;18221;38.704;0.152;2023-02-10T12:53:59;100848.22;;;14.23;47.46
10176;BME280;18221;38.704;0.152;2023-02-10T12:56:37;100847.69;;;14.53;47.35
10176;BME280;18221;38.704;0.152;2023-02-10T12:59:16;100848.06;;;14.71;47.00
10176;BME280;18221;38.704;0.152;2023-02-10T13:01:52;100841.00;;;14.92;45.91
10176;BME280;18221;38.704;0.152;2023-02-10T13:04:28;100844.78;;;15.12;44.36
10176;BME280;18221;38.704;0.152;2023-02-10T13:07:03;100846.00;;;14.63;45.33
10176;BME280;18221;38.704;0.152;2023-02-10T13:09:43;100844.03;;;14.65;46.04
10176;BME280;18221;38.704;0.152;2023-02-10T13:12:21;100854.00;;;14.52;46.14
10176;BME280;18221;38.704;0.152;2023-02-10T13:14:58;100845.88;;;14.43;45.79
10176;BME280;18221;38.704;0.152;2023-02-10T13:17:42;100847.91;;;14.39;46.94
10176;BME280;18221;38.704;0.152;2023-02-10T13:20:27;100846.69;;;14.32;47.41
10176;BME280;18221;38.704;0.152;2023-02-10T13:23:13;100837.44;;;14.25;47.62
10176;BME280;18221;38.704;0.152;2023-02-10T13:26:17;100840.25;;;14.35;47.53
10176;BME280;18221;38.704;0.152;2023-02-10T13:29:05;100838.06;;;14.40;47.21
10176;BME280;18221;38.704;0.152;2023-02-10T13:31:58;100837.78;;;14.20;47.68